Terminal Aerodrome Forecast
Issued by NWS

Home | Current Version | Previous Version | Text Only | Print | Product List | Glossary Off
Versions: 1 2 3 4 5 6 7 8 9 10 11 12 13 14

000
FTUS45 KRIW 011100
TAFBPI
TAF
KBPI 011126Z 0112/0212 33015G23KT P6SM FEW060
     FM012000 33020G30KT P6SM SCT060
     FM020200 32008KT P6SM FEW060=

USA.gov is the U.S. government's official web portal to all federal, state and local government web resources and services.